Terminal Aerodrome Forecast
Issued by NWS Raleigh/Durham, NC

Home | Current Version | Previous Version | Text Only | Print | Product List | Glossary On
Versions: 1 2 3 4 5 6 7 8 9 10 11 12 13 14 15 16 17 18 19 20 21 22 23 24 25 26 27 28 29 30 31 32 33 34 35 36 37 38 39 40 41 42 43 44
000
FTUS42 KRAH 061729
TAFRDU
TAF
KRDU 061729Z 0618/0718 03008KT 2SM -RADZ BR OVC006
      TEMPO 0618/0621 1SM -RADZ BR OVC004
     FM070000 32002KT 2SM BR OVC004
     FM071000 30003KT 4SM BR SCT004 SCT250
     FM071200 34006KT P6SM BKN250=

USA.gov is the U.S. government's official web portal to all federal, state and local government web resources and services.